createdAt,value
2018-09-28T00:00:59.783Z,7.03
2018-09-28T00:03:28.656Z,5.87
2018-09-28T00:05:57.681Z,9.80
2018-09-28T00:08:26.381Z,12.00
2018-09-28T00:10:55.138Z,9.83
2018-09-28T00:13:23.822Z,6.07
2018-09-28T00:15:52.536Z,11.83
2018-09-28T00:18:21.194Z,9.90
2018-09-28T00:20:49.830Z,6.05
2018-09-28T00:23:18.575Z,6.83
2018-09-28T00:25:47.281Z,7.13
2018-09-28T00:28:16.116Z,13.93
2018-09-28T00:30:44.776Z,6.70
2018-09-28T00:33:13.514Z,12.57
2018-09-28T00:35:42.180Z,12.37
2018-09-28T00:38:10.949Z,14.63
2018-09-28T00:40:39.651Z,7.10
2018-09-28T00:43:08.373Z,15.00
2018-09-28T00:45:37.065Z,7.17
2018-09-28T00:48:05.698Z,7.97
2018-09-28T00:50:34.395Z,12.77
2018-09-28T00:53:03.848Z,5.80
2018-09-28T00:55:32.500Z,12.63
2018-09-28T00:58:01.231Z,9.37
2018-09-28T01:00:29.869Z,5.83
2018-09-28T01:02:58.686Z,10.17
2018-09-28T01:05:27.488Z,8.53
2018-09-28T01:07:56.193Z,5.47
2018-09-28T01:10:25.002Z,5.50
2018-09-28T01:12:53.785Z,6.87
2018-09-28T01:15:22.538Z,5.50
2018-09-28T01:17:51.427Z,8.00
2018-09-28T01:20:20.063Z,13.40
2018-09-28T01:22:48.727Z,12.13
2018-09-28T01:25:17.475Z,7.70
2018-09-28T01:27:46.165Z,14.40
2018-09-28T01:30:14.874Z,5.57
2018-09-28T01:32:43.696Z,4.67
2018-09-28T01:35:12.360Z,8.10
2018-09-28T01:37:41.035Z,4.30
2018-09-28T01:40:09.839Z,9.60
2018-09-28T01:42:38.620Z,5.20
2018-09-28T01:45:07.303Z,15.60
2018-09-28T01:47:35.977Z,5.27
2018-09-28T01:50:04.636Z,8.83
2018-09-28T01:52:33.251Z,4.70
2018-09-28T01:55:01.947Z,12.40
2018-09-28T01:57:30.621Z,6.93
2018-09-28T01:59:59.299Z,8.77
2018-09-28T02:02:28.241Z,4.20
2018-09-28T02:04:57.292Z,4.60
2018-09-28T02:07:26.540Z,4.17
2018-09-28T02:09:55.796Z,4.37
2018-09-28T02:12:24.993Z,4.53
2018-09-28T02:14:54.382Z,4.33
2018-09-28T02:17:23.622Z,4.10
2018-09-28T02:19:52.808Z,4.07
2018-09-28T02:22:21.933Z,4.03
2018-09-28T02:24:51.000Z,4.23
2018-09-28T02:27:20.551Z,4.03
2018-09-28T02:29:49.796Z,3.73
2018-09-28T02:32:18.875Z,3.50
2018-09-28T02:34:48.048Z,3.83
2018-09-28T02:37:17.162Z,2.50
2018-09-28T02:39:46.339Z,2.97
2018-09-28T02:42:15.535Z,2.43
2018-09-28T02:44:44.801Z,2.90
2018-09-28T02:47:13.893Z,2.30
2018-09-28T02:49:42.988Z,2.23
2018-09-28T02:52:12.194Z,2.13
2018-09-28T02:54:41.382Z,3.53
2018-09-28T02:57:10.506Z,2.33
2018-09-28T02:59:39.692Z,2.63
2018-09-28T03:02:08.936Z,2.07
2018-09-28T03:04:38.220Z,1.90
2018-09-28T03:07:07.312Z,1.97
2018-09-28T03:09:36.484Z,3.00
2018-09-28T03:12:05.712Z,2.10
2018-09-28T03:14:35.129Z,1.87
2018-09-28T03:17:05.067Z,1.97
2018-09-28T03:19:34.237Z,1.77
2018-09-28T03:22:03.361Z,1.40
2018-09-28T03:24:32.626Z,2.20
2018-09-28T03:27:01.743Z,1.57
2018-09-28T03:29:30.896Z,1.90
2018-09-28T03:32:00.051Z,2.03
2018-09-28T03:34:29.229Z,1.60
2018-09-28T03:36:58.332Z,2.00
2018-09-28T03:39:27.444Z,1.77
2018-09-28T03:41:56.551Z,2.40
2018-09-28T03:44:25.749Z,1.73
2018-09-28T03:46:54.924Z,2.47
2018-09-28T03:49:24.501Z,1.97
2018-09-28T03:51:53.656Z,1.23
2018-09-28T03:54:22.878Z,1.67
2018-09-28T03:56:52.011Z,2.33
2018-09-28T03:59:21.296Z,1.60
2018-09-28T04:01:50.657Z,2.30
2018-09-28T04:04:19.861Z,1.53
2018-09-28T04:06:49.020Z,1.60
2018-09-28T04:09:18.176Z,2.20
2018-09-28T04:11:47.445Z,1.27
2018-09-28T04:14:16.608Z,2.43
2018-09-28T04:16:45.905Z,1.57
2018-09-28T04:19:15.113Z,1.57
2018-09-28T04:21:51.394Z,2.17
2018-09-28T04:24:20.559Z,1.83
2018-09-28T04:26:49.642Z,1.90
2018-09-28T04:29:18.700Z,1.77
2018-09-28T04:31:47.749Z,1.67
2018-09-28T04:34:16.972Z,2.00
2018-09-28T04:36:46.063Z,1.40
2018-09-28T04:39:15.142Z,1.33
2018-09-28T04:41:44.339Z,1.33
2018-09-28T04:44:13.431Z,1.60
2018-09-28T04:46:42.569Z,1.40
2018-09-28T04:49:13.831Z,2.17
2018-09-28T04:51:43.493Z,1.53
2018-09-28T04:54:12.587Z,1.57
2018-09-28T04:56:41.707Z,1.50
2018-09-28T04:59:10.807Z,1.97
2018-09-28T05:01:39.928Z,1.10
2018-09-28T05:04:09.216Z,1.22
2018-09-28T05:06:38.349Z,1.10
2018-09-28T05:09:11.699Z,2.07
2018-09-28T05:11:40.750Z,1.70
2018-09-28T05:14:10.306Z,1.75
2018-09-28T05:16:40.402Z,1.90
2018-09-28T05:19:10.054Z,1.33
2018-09-28T05:21:39.265Z,1.63
2018-09-28T05:24:08.411Z,1.77
2018-09-28T05:26:37.678Z,1.50
2018-09-28T05:29:07.577Z,1.27
2018-09-28T05:31:37.624Z,2.57
2018-09-28T05:34:07.249Z,1.37
2018-09-28T05:36:36.923Z,1.80
2018-09-28T05:39:08.188Z,1.70
2018-09-28T05:41:37.368Z,1.40
2018-09-28T05:44:06.490Z,2.20
2018-09-28T05:46:35.631Z,2.87
2018-09-28T05:49:05.005Z,2.40
2018-09-28T05:51:34.228Z,1.97
2018-09-28T05:54:03.206Z,1.97
2018-09-28T05:56:33.004Z,2.13
2018-09-28T05:59:07.670Z,3.27
2018-09-28T06:01:42.871Z,2.27
2018-09-28T06:04:18.089Z,2.07
2018-09-28T06:06:47.264Z,2.13
2018-09-28T06:09:16.842Z,2.33
2018-09-28T06:11:46.319Z,2.27
2018-09-28T06:14:15.640Z,2.50
2018-09-28T06:16:44.835Z,2.43
2018-09-28T06:19:14.014Z,2.80
2018-09-28T06:21:43.106Z,2.27
2018-09-28T06:24:12.377Z,2.63
2018-09-28T06:26:41.682Z,2.33
2018-09-28T06:29:10.761Z,2.07
2018-09-28T06:31:39.936Z,2.67
2018-09-28T06:34:09.077Z,2.65
2018-09-28T06:36:38.297Z,1.83
2018-09-28T06:39:07.698Z,2.17
2018-09-28T06:41:36.854Z,1.83
2018-09-28T06:44:05.909Z,2.40
2018-09-28T06:46:35.104Z,2.17
2018-09-28T06:49:04.798Z,2.23
2018-09-28T06:51:34.032Z,2.53
2018-09-28T06:54:03.177Z,2.20
2018-09-28T06:56:32.361Z,2.13
2018-09-28T06:59:01.627Z,2.23
2018-09-28T07:01:30.782Z,2.60
2018-09-28T07:04:00.011Z,1.67
2018-09-28T07:06:29.090Z,1.50
2018-09-28T07:08:58.168Z,2.90
2018-09-28T07:11:27.260Z,2.20
2018-09-28T07:13:56.348Z,2.60
2018-09-28T07:16:25.723Z,2.57
2018-09-28T07:18:54.824Z,1.50
2018-09-28T07:21:23.947Z,1.83
2018-09-28T07:23:53.273Z,1.40
2018-09-28T07:26:22.416Z,1.70
2018-09-28T07:28:51.678Z,1.90
2018-09-28T07:31:21.881Z,1.57
2018-09-28T07:33:50.999Z,1.67
2018-09-28T07:36:20.599Z,1.60
2018-09-28T07:38:49.676Z,1.53
2018-09-28T07:41:18.821Z,2.63
2018-09-28T07:43:47.977Z,1.43
2018-09-28T07:46:17.891Z,2.07
2018-09-28T07:48:47.103Z,2.13
2018-09-28T07:51:16.379Z,1.95
2018-09-28T07:53:45.674Z,1.73
2018-09-28T07:56:14.948Z,1.87
2018-09-28T07:58:44.780Z,2.50
2018-09-28T08:01:14.101Z,1.60
2018-09-28T08:03:43.454Z,1.80
2018-09-28T08:06:12.386Z,2.47
2018-09-28T08:08:43.327Z,2.10
2018-09-28T08:11:13.567Z,1.37
2018-09-28T08:13:42.944Z,1.40
2018-09-28T08:16:12.110Z,1.87
2018-09-28T08:18:41.271Z,1.97
2018-09-28T08:21:10.549Z,1.93
2018-09-28T08:23:39.625Z,1.33
2018-09-28T08:26:08.827Z,1.90
2018-09-28T08:28:38.076Z,2.07
2018-09-28T08:31:07.302Z,2.00
2018-09-28T08:33:36.234Z,1.83
2018-09-28T08:36:04.887Z,1.83
2018-09-28T08:38:33.744Z,1.53
2018-09-28T08:41:02.814Z,2.40
2018-09-28T08:43:31.926Z,1.80
2018-09-28T08:46:00.950Z,1.80
2018-09-28T08:48:30.146Z,1.83
2018-09-28T08:50:59.452Z,1.70
2018-09-28T08:53:29.446Z,1.67
2018-09-28T08:55:58.605Z,1.67
2018-09-28T08:58:27.856Z,1.20
2018-09-28T09:00:57.097Z,1.83
2018-09-28T09:03:26.168Z,2.10
2018-09-28T09:05:55.304Z,1.77
2018-09-28T09:08:24.389Z,1.83
2018-09-28T09:10:53.635Z,1.60
2018-09-28T09:13:23.157Z,1.80
2018-09-28T09:15:52.363Z,1.97
2018-09-28T09:18:21.759Z,1.60
2018-09-28T09:20:50.935Z,1.73
2018-09-28T09:23:20.190Z,1.60
2018-09-28T09:25:49.430Z,1.47
2018-09-28T09:28:18.814Z,1.80
2018-09-28T09:30:48.096Z,1.83
2018-09-28T09:33:17.205Z,1.53
2018-09-28T09:35:46.492Z,1.90
2018-09-28T09:38:15.757Z,1.30
2018-09-28T09:40:44.982Z,1.50
2018-09-28T09:43:14.090Z,1.83
2018-09-28T09:45:43.535Z,1.60
2018-09-28T09:48:12.705Z,4.20
2018-09-28T09:50:41.957Z,3.23
2018-09-28T09:53:11.170Z,1.93
2018-09-28T09:55:40.915Z,1.70
2018-09-28T09:58:10.018Z,2.00
2018-09-28T10:00:44.485Z,1.77
2018-09-28T10:03:18.946Z,2.20
2018-09-28T10:05:47.995Z,2.07
2018-09-28T10:08:17.144Z,1.63
2018-09-28T10:10:46.353Z,2.27
2018-09-28T10:13:15.429Z,1.63
2018-09-28T10:15:44.645Z,2.20
2018-09-28T10:18:15.029Z,1.63
2018-09-28T10:20:44.351Z,1.30
2018-09-28T10:23:13.512Z,1.37
2018-09-28T10:25:48.248Z,1.70
2018-09-28T10:28:17.492Z,2.87
2018-09-28T10:30:46.595Z,1.17
2018-09-28T10:33:16.322Z,1.80
2018-09-28T10:35:45.943Z,1.90
2018-09-28T10:38:15.511Z,1.50
2018-09-28T10:40:45.216Z,1.23
2018-09-28T10:43:14.499Z,1.20
2018-09-28T10:45:44.054Z,1.63
2018-09-28T10:48:13.306Z,1.47
2018-09-28T10:50:42.475Z,1.40
2018-09-28T10:53:11.918Z,1.73
2018-09-28T10:55:41.016Z,1.30
2018-09-28T10:58:10.753Z,1.53
2018-09-28T11:00:40.786Z,1.87
2018-09-28T11:03:09.909Z,1.63
2018-09-28T11:05:39.445Z,1.80
2018-09-28T11:08:08.540Z,1.37
2018-09-28T11:10:37.746Z,1.50
2018-09-28T11:13:06.992Z,1.60
2018-09-28T11:15:36.429Z,1.20
2018-09-28T11:18:05.481Z,1.20
2018-09-28T11:20:34.536Z,1.57
2018-09-28T11:23:04.621Z,1.27
2018-09-28T11:25:33.768Z,1.47
2018-09-28T11:28:02.858Z,1.40
2018-09-28T11:30:31.958Z,1.27
2018-09-28T11:33:01.131Z,1.50
2018-09-28T11:35:30.280Z,1.17
2018-09-28T11:37:59.313Z,1.00
2018-09-28T11:40:28.329Z,1.27
2018-09-28T11:42:57.526Z,1.50
2018-09-28T11:45:26.879Z,1.63
2018-09-28T11:47:55.750Z,1.07
2018-09-28T11:50:25.229Z,2.47
2018-09-28T11:52:54.911Z,1.30
2018-09-28T11:55:23.641Z,1.10
2018-09-28T11:57:52.336Z,1.33
2018-09-28T12:00:20.966Z,1.27
2018-09-28T12:02:49.568Z,1.50
2018-09-28T12:05:18.352Z,1.13
2018-09-28T12:07:46.991Z,1.80
2018-09-28T12:10:15.619Z,2.00
2018-09-28T12:12:44.415Z,1.77
2018-09-28T12:15:13.036Z,1.47
2018-09-28T12:17:41.720Z,1.40
2018-09-28T12:20:10.572Z,1.40
2018-09-28T12:22:39.231Z,1.30
2018-09-28T12:25:07.917Z,1.30
2018-09-28T12:27:36.632Z,1.13
2018-09-28T12:30:05.296Z,1.23
2018-09-28T12:32:33.962Z,2.10
2018-09-28T12:35:02.887Z,2.07
2018-09-28T12:37:31.595Z,1.40
2018-09-28T12:40:00.357Z,1.50
2018-09-28T12:42:29.126Z,1.33
2018-09-28T12:44:57.874Z,1.23
2018-09-28T12:47:27.208Z,1.33
2018-09-28T12:49:56.772Z,1.73
2018-09-28T12:52:26.411Z,1.20
2018-09-28T12:54:55.479Z,1.40
2018-09-28T12:57:24.286Z,0.90
2018-09-28T12:59:53.079Z,1.47
2018-09-28T13:02:21.938Z,0.88
2018-09-28T13:04:50.622Z,1.20
2018-09-28T13:07:19.287Z,0.97
2018-09-28T13:09:48.085Z,0.97
2018-09-28T13:12:16.936Z,1.10
2018-09-28T13:14:45.787Z,1.00
2018-09-28T13:17:14.529Z,1.13
2018-09-28T13:19:43.407Z,1.20
2018-09-28T13:22:12.627Z,1.00
2018-09-28T13:24:41.659Z,1.07
2018-09-28T13:27:10.391Z,1.50
2018-09-28T13:29:39.198Z,1.03
2018-09-28T13:32:08.066Z,1.30
2018-09-28T13:34:36.877Z,1.10
2018-09-28T13:37:05.739Z,1.30
2018-09-28T13:39:34.640Z,1.00
2018-09-28T13:42:04.062Z,0.90
2018-09-28T13:44:32.854Z,1.20
2018-09-28T13:47:01.521Z,1.47
2018-09-28T13:49:30.374Z,1.50
2018-09-28T13:51:59.061Z,1.30
2018-09-28T13:54:27.996Z,1.10
2018-09-28T13:56:56.700Z,0.83
2018-09-28T13:59:25.448Z,1.40
2018-09-28T14:01:54.148Z,1.40
2018-09-28T14:04:22.994Z,1.23
2018-09-28T14:06:51.971Z,1.30
2018-09-28T14:09:20.514Z,1.13
2018-09-28T14:11:49.212Z,0.80
2018-09-28T14:14:18.113Z,1.43
2018-09-28T14:16:46.893Z,1.30
2018-09-28T14:19:15.547Z,1.13
2018-09-28T14:21:44.345Z,1.47
2018-09-28T14:24:13.223Z,1.40
2018-09-28T14:26:41.936Z,1.10
2018-09-28T14:29:10.738Z,1.30
2018-09-28T14:31:39.395Z,1.70
2018-09-28T14:34:08.152Z,1.50
2018-09-28T14:36:36.807Z,1.50
2018-09-28T14:39:06.537Z,1.93
2018-09-28T14:41:35.400Z,1.70
2018-09-28T14:44:04.456Z,2.00
2018-09-28T14:46:33.169Z,1.10
2018-09-28T14:49:02.200Z,1.50
2018-09-28T14:51:31.248Z,1.50
2018-09-28T14:54:00.249Z,1.30
2018-09-28T14:56:28.977Z,1.77
2018-09-28T14:58:57.629Z,1.47
2018-09-28T15:01:26.465Z,1.60
2018-09-28T15:03:55.113Z,1.20
2018-09-28T15:06:24.068Z,1.13
2018-09-28T15:08:52.624Z,1.30
2018-09-28T15:13:43.093Z,1.20
2018-09-28T15:16:11.754Z,1.37
2018-09-28T15:18:40.403Z,1.37
2018-09-28T15:21:08.995Z,1.43
2018-09-28T15:23:37.715Z,1.63
2018-09-28T15:26:06.519Z,1.30
2018-09-28T15:28:35.126Z,1.17
2018-09-28T15:31:03.987Z,1.40
2018-09-28T15:33:32.731Z,1.17
2018-09-28T15:36:01.451Z,1.40
2018-09-28T15:38:30.368Z,2.97
2018-09-28T15:40:59.071Z,1.80
2018-09-28T15:43:27.844Z,1.60
2018-09-28T15:45:56.569Z,1.70
2018-09-28T15:48:25.260Z,1.80
2018-09-28T15:50:54.013Z,2.00
2018-09-28T15:53:24.075Z,2.00
2018-09-28T15:55:52.765Z,1.80
2018-09-28T15:58:21.559Z,2.33
2018-09-28T16:00:50.403Z,1.90
2018-09-28T16:03:19.203Z,1.67
2018-09-28T16:05:48.009Z,1.90
2018-09-28T16:08:16.760Z,2.00
2018-09-28T16:10:45.756Z,2.00
2018-09-28T16:13:14.446Z,1.90
2018-09-28T16:15:43.221Z,1.60
2018-09-28T16:18:11.915Z,1.63
2018-09-28T16:20:40.643Z,1.43
2018-09-28T16:23:09.780Z,1.70
2018-09-28T16:25:38.471Z,1.10
2018-09-28T16:28:07.159Z,1.43
2018-09-28T16:30:35.826Z,1.57
2018-09-28T16:33:05.116Z,1.50
2018-09-28T16:35:34.116Z,1.10
2018-09-28T16:38:03.527Z,1.30
2018-09-28T16:40:32.446Z,1.40
2018-09-28T16:43:04.112Z,1.53
2018-09-28T16:45:32.818Z,1.80
2018-09-28T16:48:01.492Z,1.87
2018-09-28T16:50:30.287Z,1.27
2018-09-28T16:52:59.337Z,1.40
2018-09-28T16:55:28.381Z,1.63
2018-09-28T16:57:57.216Z,1.80
2018-09-28T17:00:26.063Z,1.93
2018-09-28T17:02:54.907Z,1.90
2018-09-28T17:05:23.687Z,1.47
2018-09-28T17:07:52.601Z,1.50
2018-09-28T17:10:21.340Z,1.47
2018-09-28T17:12:50.409Z,1.27
2018-09-28T17:15:19.296Z,1.53
2018-09-28T17:17:48.024Z,2.13
2018-09-28T17:20:16.728Z,1.77
2018-09-28T17:22:46.066Z,1.87
2018-09-28T17:25:14.789Z,2.13
2018-09-28T17:27:43.463Z,1.83
2018-09-28T17:30:12.160Z,1.60
2018-09-28T17:32:40.913Z,2.20
2018-09-28T17:35:10.088Z,1.90
2018-09-28T17:37:38.975Z,1.37
2018-09-28T17:40:07.680Z,2.07
2018-09-28T17:42:36.359Z,1.90
2018-09-28T17:45:05.074Z,1.77
2018-09-28T17:47:34.136Z,2.00
2018-09-28T17:50:02.852Z,1.80
2018-09-28T17:52:31.472Z,2.00
2018-09-28T17:55:00.145Z,1.40
2018-09-28T17:57:28.870Z,1.70
2018-09-28T17:59:57.535Z,2.53
2018-09-28T18:02:26.210Z,1.40
2018-09-28T18:04:54.959Z,1.73
2018-09-28T18:07:23.658Z,1.40
2018-09-28T18:09:52.507Z,1.80
2018-09-28T18:12:21.308Z,1.80
2018-09-28T18:14:50.512Z,1.47
2018-09-28T18:17:19.328Z,1.37
2018-09-28T18:19:48.060Z,1.63
2018-09-28T18:22:16.733Z,1.90
2018-09-28T18:24:45.367Z,1.50
2018-09-28T18:27:14.415Z,1.77
2018-09-28T18:29:43.101Z,1.47
2018-09-28T18:32:11.843Z,2.10
2018-09-28T18:34:40.677Z,2.50
2018-09-28T18:37:09.342Z,1.60
2018-09-28T18:39:38.154Z,1.60
2018-09-28T18:42:06.952Z,1.40
2018-09-28T18:44:36.069Z,1.40
2018-09-28T18:47:04.843Z,1.30
2018-09-28T18:49:33.588Z,1.40
2018-09-28T18:52:02.338Z,1.73
2018-09-28T18:54:31.123Z,1.37
2018-09-28T18:56:59.886Z,1.27
2018-09-28T18:59:28.604Z,2.00
2018-09-28T19:01:57.329Z,1.10
2018-09-28T19:04:26.015Z,1.33
2018-09-28T19:06:54.782Z,1.60
2018-09-28T19:09:23.473Z,1.40
2018-09-28T19:11:52.192Z,1.60
2018-09-28T19:14:21.159Z,1.57
2018-09-28T19:16:50.020Z,1.37
2018-09-28T19:19:18.745Z,1.70
2018-09-28T19:21:47.519Z,1.70
2018-09-28T19:24:16.374Z,1.70
2018-09-28T19:26:45.059Z,1.40
2018-09-28T19:29:13.799Z,1.80
2018-09-28T19:31:42.555Z,1.43
2018-09-28T19:34:11.327Z,1.30
2018-09-28T19:36:40.147Z,1.10
2018-09-28T19:39:09.591Z,1.27
2018-09-28T19:41:39.224Z,1.40
2018-09-28T19:44:07.921Z,1.30
2018-09-28T19:46:36.550Z,2.03
2018-09-28T19:49:05.270Z,1.73
2018-09-28T19:51:33.979Z,1.20
2018-09-28T19:54:02.641Z,1.50
2018-09-28T19:56:31.287Z,1.50
2018-09-28T19:58:59.908Z,1.60
2018-09-28T20:01:28.524Z,1.50
2018-09-28T20:03:57.148Z,1.80
2018-09-28T20:06:25.841Z,1.60
2018-09-28T20:08:54.498Z,1.40
2018-09-28T20:11:23.116Z,1.23
2018-09-28T20:13:51.807Z,1.63
2018-09-28T20:16:20.579Z,1.60
2018-09-28T20:18:49.427Z,1.80
2018-09-28T20:21:18.081Z,1.50
2018-09-28T20:23:46.729Z,1.67
2018-09-28T20:26:15.391Z,1.70
2018-09-28T20:28:44.025Z,1.70
2018-09-28T20:31:12.648Z,1.87
2018-09-28T20:33:41.269Z,1.27
2018-09-28T20:36:09.926Z,1.60
2018-09-28T20:38:39.091Z,1.43
2018-09-28T20:41:07.959Z,1.83
2018-09-28T20:43:36.908Z,1.30
2018-09-28T20:46:05.857Z,1.70
2018-09-28T20:48:34.579Z,1.60
2018-09-28T20:51:04.050Z,1.30
2018-09-28T20:53:32.819Z,1.53
2018-09-28T20:56:01.462Z,1.37
2018-09-28T20:58:30.120Z,1.03
2018-09-28T21:00:58.907Z,1.40
2018-09-28T21:03:27.556Z,1.17
2018-09-28T21:05:56.276Z,1.20
2018-09-28T21:08:24.922Z,1.17
2018-09-28T21:10:53.612Z,1.40
2018-09-28T21:13:22.457Z,1.40
2018-09-28T21:15:51.092Z,1.70
2018-09-28T21:18:20.052Z,1.40
2018-09-28T21:20:48.762Z,1.30
2018-09-28T21:23:17.506Z,1.20
2018-09-28T21:25:46.202Z,1.50
2018-09-28T21:28:14.979Z,1.70
2018-09-28T21:30:43.645Z,1.23
2018-09-28T21:33:12.300Z,1.17
2018-09-28T21:35:41.109Z,1.17
2018-09-28T21:38:09.735Z,1.40
2018-09-28T21:40:38.416Z,1.60
2018-09-28T21:43:07.174Z,1.20
2018-09-28T21:45:35.843Z,1.57
2018-09-28T21:48:04.677Z,1.50
2018-09-28T21:50:33.388Z,1.40
2018-09-28T21:53:02.016Z,1.07
2018-09-28T21:55:30.648Z,1.73
2018-09-28T21:57:59.343Z,1.53
2018-09-28T22:00:27.923Z,1.10
2018-09-28T22:02:56.889Z,1.60
2018-09-28T22:05:25.588Z,1.43
2018-09-28T22:07:54.212Z,1.20
2018-09-28T22:10:22.869Z,2.37
2018-09-28T22:12:51.568Z,2.00
2018-09-28T22:15:20.278Z,1.70
2018-09-28T22:17:49.012Z,1.30
2018-09-28T22:20:17.687Z,1.37
2018-09-28T22:22:46.424Z,1.70
2018-09-28T22:25:15.108Z,1.50
2018-09-28T22:27:43.727Z,1.20
2018-09-28T22:30:12.356Z,1.50
2018-09-28T22:32:40.978Z,1.27
2018-09-28T22:35:09.616Z,1.40
2018-09-28T22:37:38.318Z,1.50
2018-09-28T22:40:07.144Z,1.37
2018-09-28T22:42:36.024Z,1.37
2018-09-28T22:45:05.460Z,1.33
2018-09-28T22:47:34.621Z,1.30
2018-09-28T22:50:04.354Z,1.60
2018-09-28T22:52:33.047Z,1.53
2018-09-28T22:55:01.755Z,1.90
2018-09-28T22:57:30.411Z,1.17
2018-09-28T22:59:59.062Z,1.57
2018-09-28T23:02:27.747Z,1.90
2018-09-28T23:04:56.358Z,1.30
2018-09-28T23:07:25.023Z,1.63
2018-09-28T23:09:53.722Z,1.50
2018-09-28T23:12:22.338Z,1.57
2018-09-28T23:14:50.963Z,1.60
2018-09-28T23:17:19.592Z,1.20
2018-09-28T23:19:48.239Z,1.30
2018-09-28T23:22:16.875Z,1.83
2018-09-28T23:24:45.485Z,1.30
2018-09-28T23:27:14.080Z,1.40
2018-09-28T23:29:42.680Z,1.40
2018-09-28T23:32:11.310Z,1.20
2018-09-28T23:34:39.939Z,1.10
2018-09-28T23:37:08.535Z,1.13
2018-09-28T23:39:37.246Z,1.53
2018-09-28T23:42:06.116Z,1.50
2018-09-28T23:44:34.788Z,1.20
2018-09-28T23:47:04.196Z,1.20
2018-09-28T23:49:33.036Z,1.20
2018-09-28T23:52:01.669Z,1.40
2018-09-28T23:54:30.343Z,1.10
2018-09-28T23:56:58.990Z,1.47
2018-09-28T23:59:27.679Z,1.33
